Time;durP1;ratioP1;P1;durP2;ratioP2;P2;SDS_P1;SDS_P2;PMS_P1;PMS_P2;Temp;Humidity;BMP_temperature;BMP_pressure;BME280_temperature;BME280_humidity;BME280_pressure;Samples;Min_cycle;Max_cycle;Signal;HPM_P1;HPM_P2
2023/11/28 00:00:48;;;;;;;17.07;10.23;;;1.80;99.90;;;;;;4996888;28;20185;-83
2023/11/28 00:03:14;;;;;;;18.80;11.10;;;1.80;99.90;;;;;;4981026;28;20259;-84
2023/11/28 00:05:40;;;;;;;25.45;12.65;;;1.70;99.90;;;;;;4996522;28;20187;-85
2023/11/28 00:08:06;;;;;;;21.73;10.57;;;1.60;99.90;;;;;;4996084;28;20210;-83
2023/11/28 00:10:32;;;;;;;17.60;12.17;;;1.50;99.90;;;;;;4996395;28;20546;-84
2023/11/28 00:12:57;;;;;;;20.03;11.60;;;1.50;99.90;;;;;;4997003;28;20187;-84
2023/11/28 00:15:23;;;;;;;17.47;11.23;;;1.40;99.90;;;;;;4996752;28;20206;-84
2023/11/28 00:17:48;;;;;;;18.93;12.17;;;1.30;99.90;;;;;;5012145;28;20180;-84
2023/11/28 00:20:14;;;;;;;16.97;11.10;;;1.30;99.90;;;;;;4997829;28;20194;-84
2023/11/28 00:22:40;;;;;;;17.30;11.10;;;1.30;99.90;;;;;;4996281;28;20182;-84
2023/11/28 00:25:06;;;;;;;16.60;9.43;;;1.20;99.90;;;;;;4997720;28;20172;-83
2023/11/28 00:27:32;;;;;;;18.98;11.45;;;1.20;99.90;;;;;;4996462;28;20235;-83
2023/11/28 00:29:57;;;;;;;14.80;9.93;;;1.20;99.90;;;;;;4996628;28;20260;-84
2023/11/28 00:32:23;;;;;;;13.17;9.17;;;1.20;99.90;;;;;;4996711;28;20613;-83
2023/11/28 00:34:49;;;;;;;13.70;10.40;;;1.10;99.90;;;;;;4996994;28;20184;-84
2023/11/28 00:37:14;;;;;;;12.10;8.87;;;1.10;99.90;;;;;;4998275;28;20184;-83
2023/11/28 00:39:40;;;;;;;13.03;9.93;;;1.10;99.90;;;;;;4995924;28;20431;-84
2023/11/28 00:42:06;;;;;;;14.83;9.80;;;1.10;99.90;;;;;;4997884;28;20219;-84
2023/11/28 00:44:31;;;;;;;12.33;8.90;;;1.00;99.90;;;;;;5012440;28;20471;-84
2023/11/28 00:46:57;;;;;;;13.50;8.90;;;1.00;99.90;;;;;;4996493;28;20187;-84
2023/11/28 00:49:23;;;;;;;11.53;8.17;;;1.00;99.90;;;;;;4997270;28;20193;-84
2023/11/28 00:51:48;;;;;;;10.50;7.97;;;1.00;99.90;;;;;;4997584;28;20415;-84
2023/11/28 00:54:14;;;;;;;13.13;9.50;;;0.90;99.90;;;;;;4996836;28;20194;-84
2023/11/28 00:56:40;;;;;;;13.00;9.50;;;0.90;99.90;;;;;;4996036;28;20565;-84
2023/11/28 00:59:05;;;;;;;12.07;8.83;;;0.90;99.90;;;;;;4997184;28;20407;-84
2023/11/28 01:01:31;;;;;;;10.27;7.53;;;0.90;99.90;;;;;;4997169;28;20183;-85
2023/11/28 01:03:57;;;;;;;10.30;7.97;;;0.90;99.90;;;;;;5012439;28;20676;-84
2023/11/28 01:06:22;;;;;;;11.87;9.00;;;0.90;99.90;;;;;;4996437;28;20176;-84
2023/11/28 01:08:48;;;;;;;11.23;7.90;;;0.80;99.90;;;;;;4996970;28;20617;-84
2023/11/28 01:11:15;;;;;;;11.17;8.00;;;0.80;99.90;;;;;;4997557;28;20187;-84
2023/11/28 01:13:41;;;;;;;14.00;9.98;;;0.80;99.90;;;;;;4997551;28;20187;-84
2023/11/28 01:16:10;;;;;;;14.75;10.13;;;0.80;99.90;;;;;;4997237;28;20175;-84
2023/11/28 01:18:35;;;;;;;13.07;9.48;;;0.80;99.90;;;;;;4997096;28;20203;-84
2023/11/28 01:21:02;;;;;;;13.27;9.47;;;0.80;99.90;;;;;;4997205;28;20190;-84
2023/11/28 01:23:27;;;;;;;18.90;12.50;;;0.80;99.90;;;;;;4996974;28;20199;-88
2023/11/28 01:25:53;;;;;;;13.60;8.93;;;0.70;99.90;;;;;;4995683;28;20310;-85
2023/11/28 01:28:19;;;;;;;13.87;10.20;;;0.80;99.90;;;;;;4997553;28;20259;-85
2023/11/28 01:30:44;;;;;;;13.80;8.73;;;0.70;99.90;;;;;;5000979;28;20188;-85
2023/11/28 01:33:11;;;;;;;12.20;9.03;;;0.70;99.90;;;;;;4999853;28;20542;-85
2023/11/28 01:35:38;;;;;;;13.90;10.30;;;0.70;99.90;;;;;;4999949;28;20204;-85
2023/11/28 01:38:04;;;;;;;13.98;10.52;;;0.70;99.90;;;;;;5000917;28;20535;-84
2023/11/28 01:40:30;;;;;;;13.10;9.83;;;0.70;99.90;;;;;;5000777;28;20188;-85
2023/11/28 01:42:55;;;;;;;10.10;7.70;;;0.70;99.90;;;;;;4999047;28;20498;-86
2023/11/28 01:45:22;;;;;;;12.57;9.93;;;0.70;99.90;;;;;;4999593;28;20195;-85
2023/11/28 01:47:52;;;;;;;15.93;11.48;;;0.70;99.90;;;;;;4999472;28;20238;-85
2023/11/28 01:50:18;;;;;;;11.10;8.55;;;0.70;99.90;;;;;;5000724;28;20254;-85
2023/11/28 01:52:44;;;;;;;11.35;9.50;;;0.70;99.90;;;;;;5000054;28;20274;-85
2023/11/28 01:55:11;;;;;;;12.03;9.37;;;0.70;99.90;;;;;;5000370;28;20206;-85
2023/11/28 01:57:37;;;;;;;14.50;10.70;;;0.70;99.90;;;;;;4999445;28;20439;-85
2023/11/28 02:00:04;;;;;;;12.40;10.77;;;0.70;99.90;;;;;;5000966;28;20179;-85
2023/11/28 02:02:31;;;;;;;12.88;10.23;;;0.70;99.90;;;;;;5000474;28;20195;-85
2023/11/28 02:04:56;;;;;;;12.52;10.18;;;0.80;99.90;;;;;;4999472;28;20624;-85
2023/11/28 02:07:22;;;;;;;14.20;10.13;;;0.80;99.90;;;;;;4999520;28;20191;-84
2023/11/28 02:09:47;;;;;;;10.67;7.90;;;0.80;99.90;;;;;;5000481;28;20179;-84
2023/11/28 02:12:13;;;;;;;15.00;11.90;;;0.80;99.90;;;;;;4983438;28;20624;-84
2023/11/28 02:14:43;;;;;;;16.10;11.67;;;0.80;99.90;;;;;;5000126;28;20227;-83
2023/11/28 02:17:08;;;;;;;11.50;8.82;;;0.80;99.90;;;;;;5000909;28;20195;-84
2023/11/28 02:19:34;;;;;;;13.07;9.50;;;0.80;99.90;;;;;;5000777;28;20185;-84
2023/11/28 02:22:00;;;;;;;11.10;9.17;;;0.90;99.90;;;;;;5000403;28;20202;-84
2023/11/28 02:24:27;;;;;;;10.33;7.47;;;0.90;99.90;;;;;;4999373;28;20307;-83
2023/11/28 02:26:53;;;;;;;12.00;8.68;;;0.90;99.90;;;;;;4999526;28;20236;-83
2023/11/28 02:29:18;;;;;;;11.53;9.10;;;0.90;99.90;;;;;;5000708;28;20186;-83
2023/11/28 02:31:44;;;;;;;11.50;9.13;;;0.90;99.90;;;;;;5000906;28;20186;-83
2023/11/28 02:34:09;;;;;;;10.90;8.20;;;0.90;99.90;;;;;;5001140;28;20195;-83
2023/11/28 02:36:35;;;;;;;10.43;8.57;;;1.00;99.90;;;;;;4999188;28;20331;-83
2023/11/28 02:39:01;;;;;;;9.23;7.13;;;1.00;99.90;;;;;;4999231;28;20632;-82
2023/11/28 02:41:26;;;;;;;12.73;9.57;;;1.00;99.90;;;;;;4998894;28;20179;-83
2023/11/28 02:43:52;;;;;;;11.77;8.50;;;1.00;99.90;;;;;;5000143;28;20284;-83
2023/11/28 02:46:17;;;;;;;10.30;9.07;;;1.00;99.90;;;;;;4999479;28;20193;-82
2023/11/28 02:48:43;;;;;;;10.17;8.93;;;1.00;99.90;;;;;;4999694;28;20193;-83
2023/11/28 02:51:11;;;;;;;9.05;8.15;;;1.00;99.90;;;;;;4982975;28;20184;-83
2023/11/28 02:53:36;;;;;;;8.55;7.68;;;1.00;99.90;;;;;;4998880;28;20184;-83
2023/11/28 02:56:02;;;;;;;9.50;8.10;;;1.10;99.90;;;;;;4999312;28;20183;-83
2023/11/28 02:58:27;;;;;;;7.70;6.30;;;1.10;99.90;;;;;;4999298;28;20218;-83
2023/11/28 03:00:53;;;;;;;8.23;7.27;;;1.10;99.90;;;;;;4999109;28;20207;-82
2023/11/28 03:03:19;;;;;;;9.57;7.80;;;1.10;99.90;;;;;;5000461;28;20296;-82
2023/11/28 03:05:44;;;;;;;9.03;7.70;;;1.10;99.90;;;;;;4998827;28;20528;-83
2023/11/28 03:08:10;;;;;;;8.70;7.80;;;1.10;99.90;;;;;;5000233;28;20212;-83
2023/11/28 03:10:35;;;;;;;11.50;7.37;;;1.10;99.90;;;;;;4998856;28;20192;-83
2023/11/28 03:13:01;;;;;;;8.77;7.03;;;1.10;99.90;;;;;;4998910;28;20222;-82
2023/11/28 03:15:27;;;;;;;12.55;8.13;;;1.10;99.90;;;;;;5000159;28;20175;-82
2023/11/28 03:17:52;;;;;;;10.77;8.47;;;1.10;99.90;;;;;;4999545;28;20707;-82
2023/11/28 03:20:18;;;;;;;9.13;8.10;;;1.10;99.90;;;;;;4998834;28;20275;-82
2023/11/28 03:22:43;;;;;;;9.40;8.13;;;1.10;99.90;;;;;;4998245;28;20522;-82
2023/11/28 03:25:11;;;;;;;10.13;9.10;;;1.10;99.90;;;;;;5000048;28;20211;-82
2023/11/28 03:27:37;;;;;;;11.07;8.90;;;1.10;99.90;;;;;;4999680;28;20227;-83
2023/11/28 03:30:04;;;;;;;11.00;9.90;;;1.10;99.90;;;;;;5014818;28;20224;-82
2023/11/28 03:32:30;;;;;;;11.88;9.27;;;1.10;99.90;;;;;;4999900;28;20426;-82
2023/11/28 03:34:56;;;;;;;10.95;9.85;;;1.10;99.90;;;;;;4999670;28;20223;-82
2023/11/28 03:37:22;;;;;;;12.68;10.50;;;1.10;99.90;;;;;;4998517;28;20176;-82
2023/11/28 03:39:47;;;;;;;12.90;10.60;;;1.10;99.90;;;;;;4997712;28;20192;-82
2023/11/28 03:42:13;;;;;;;11.97;10.67;;;1.10;99.90;;;;;;4998831;28;20179;-81
2023/11/28 03:44:38;;;;;;;11.40;9.87;;;1.10;99.90;;;;;;4999456;28;20219;-82
2023/11/28 03:47:04;;;;;;;13.90;11.80;;;1.10;99.90;;;;;;4998838;28;20184;-81
2023/11/28 03:49:31;;;;;;;11.70;10.50;;;1.10;99.90;;;;;;4998969;28;20188;-81
2023/11/28 03:51:56;;;;;;;13.82;12.20;;;1.10;99.90;;;;;;4998630;28;20228;-81
2023/11/28 03:54:22;;;;;;;14.20;12.70;;;1.20;99.90;;;;;;4999877;28;20183;-81
2023/11/28 03:56:48;;;;;;;12.83;9.90;;;1.10;99.90;;;;;;4999487;28;20279;-81
2023/11/28 03:59:13;;;;;;;15.90;12.33;;;1.20;99.90;;;;;;4998794;28;20184;-81
2023/11/28 04:01:39;;;;;;;17.10;15.50;;;1.20;99.90;;;;;;4998410;28;20626;-81
2023/11/28 04:04:04;;;;;;;13.13;10.97;;;1.20;99.90;;;;;;4998641;28;20211;-81
2023/11/28 04:06:30;;;;;;;17.50;11.73;;;1.20;99.90;;;;;;5000281;28;20189;-81
2023/11/28 04:08:56;;;;;;;15.13;12.70;;;1.20;99.90;;;;;;5014371;28;20190;-81
2023/11/28 04:11:22;;;;;;;14.77;12.13;;;1.20;99.90;;;;;;4981755;28;20180;-81
2023/11/28 04:13:47;;;;;;;17.90;13.40;;;1.20;99.90;;;;;;4998845;28;20242;-81
2023/11/28 04:16:19;;;;;;;14.63;12.87;;;1.20;99.90;;;;;;4998625;28;20632;-81
2023/11/28 04:18:50;;;;;;;18.60;14.05;;;1.20;99.90;;;;;;4999841;28;20216;-81
2023/11/28 04:21:19;;;;;;;16.27;13.63;;;1.20;99.90;;;;;;4999597;28;20522;-81
2023/11/28 04:23:45;;;;;;;15.60;11.55;;;1.20;99.90;;;;;;4999455;28;20214;-81
2023/11/28 04:26:11;;;;;;;17.63;14.33;;;1.20;99.90;;;;;;4998463;28;20195;-81
2023/11/28 04:28:36;;;;;;;20.53;17.03;;;1.20;99.90;;;;;;4998046;28;20471;-81
2023/11/28 04:31:02;;;;;;;19.50;16.10;;;1.20;99.90;;;;;;4998836;28;20260;-81
2023/11/28 04:33:29;;;;;;;19.03;16.00;;;1.20;99.90;;;;;;5000155;28;20182;-81
2023/11/28 04:35:55;;;;;;;20.85;18.17;;;1.30;99.90;;;;;;5014383;28;20213;-80
2023/11/28 04:38:20;;;;;;;23.60;18.20;;;1.30;99.90;;;;;;4998903;28;20196;-81
2023/11/28 04:40:46;;;;;;;24.43;18.87;;;1.30;99.90;;;;;;4999311;28;20420;-81
2023/11/28 04:43:11;;;;;;;24.67;19.37;;;1.30;99.90;;;;;;5014316;28;20238;-81
2023/11/28 04:45:37;;;;;;;22.50;17.67;;;1.30;99.90;;;;;;4998468;28;20230;-80
2023/11/28 04:48:02;;;;;;;22.13;18.27;;;1.30;99.90;;;;;;5014196;28;20187;-80
2023/11/28 04:50:28;;;;;;;25.80;18.70;;;1.20;99.90;;;;;;4999614;28;20259;-79
2023/11/28 04:52:54;;;;;;;25.10;19.50;;;1.30;99.90;;;;;;4998925;28;20261;-81
2023/11/28 04:55:19;;;;;;;27.27;20.37;;;1.30;99.90;;;;;;4999233;28;20511;-80
2023/11/28 04:57:46;;;;;;;28.87;21.10;;;1.30;99.90;;;;;;4998033;28;20191;-81
2023/11/28 05:00:12;;;;;;;31.35;25.50;;;1.40;99.90;;;;;;4998185;28;20183;-80
2023/11/28 05:02:38;;;;;;;29.00;21.00;;;1.30;99.90;;;;;;4999340;28;20183;-81
2023/11/28 05:05:05;;;;;;;31.20;22.33;;;1.30;99.90;;;;;;4999061;28;20423;-80
2023/11/28 05:07:31;;;;;;;29.92;23.02;;;1.30;99.90;;;;;;4999361;28;20216;-80
2023/11/28 05:09:57;;;;;;;28.40;21.77;;;1.40;99.90;;;;;;4998884;28;20188;-81
2023/11/28 05:12:23;;;;;;;29.27;20.77;;;1.40;99.90;;;;;;4981326;28;21026;-80
2023/11/28 05:14:49;;;;;;;29.02;20.60;;;1.40;99.90;;;;;;4997686;28;20652;-80
2023/11/28 05:17:15;;;;;;;23.60;16.97;;;1.40;99.90;;;;;;4999027;28;20179;-80
2023/11/28 05:19:40;;;;;;;26.83;19.67;;;1.30;99.90;;;;;;4998632;28;20451;-80
2023/11/28 05:22:07;;;;;;;26.10;20.37;;;1.40;99.90;;;;;;4997270;28;20207;-80
2023/11/28 05:24:32;;;;;;;24.08;19.20;;;1.30;99.90;;;;;;4998765;28;20211;-80
2023/11/28 05:26:59;;;;;;;32.60;20.50;;;1.30;99.90;;;;;;4998660;28;20249;-80
2023/11/28 05:29:25;;;;;;;29.80;22.25;;;1.40;99.90;;;;;;4999230;28;20192;-80
2023/11/28 05:31:51;;;;;;;34.03;24.23;;;1.40;99.90;;;;;;4998829;28;20181;-80
2023/11/28 05:34:17;;;;;;;32.67;23.10;;;1.40;99.90;;;;;;5013299;28;20183;-80
2023/11/28 05:36:43;;;;;;;41.42;26.35;;;1.40;99.90;;;;;;4998810;28;20423;-81
2023/11/28 05:39:09;;;;;;;33.87;23.70;;;1.40;99.90;;;;;;4998879;28;20211;-80
2023/11/28 05:41:34;;;;;;;35.73;25.53;;;1.40;99.90;;;;;;4999026;28;20644;-80
2023/11/28 05:44:00;;;;;;;33.70;25.50;;;1.40;99.90;;;;;;4998119;28;20216;-80
2023/11/28 05:46:25;;;;;;;33.03;22.63;;;1.40;99.90;;;;;;4997378;28;20281;-80
2023/11/28 05:48:51;;;;;;;29.77;21.30;;;1.40;99.90;;;;;;4998077;28;20515;-80
2023/11/28 05:51:17;;;;;;;36.17;24.47;;;1.40;99.90;;;;;;4997512;28;20181;-80
2023/11/28 05:53:42;;;;;;;34.70;25.87;;;1.40;99.90;;;;;;4998568;28;20203;-80
2023/11/28 05:56:09;;;;;;;26.90;18.40;;;1.40;99.90;;;;;;4997090;28;20521;-80
2023/11/28 05:58:34;;;;;;;34.65;23.55;;;1.30;99.90;;;;;;4997127;28;20423;-80
2023/11/28 06:01:01;;;;;;;38.30;24.70;;;1.40;99.90;;;;;;4998237;28;20192;-80
2023/11/28 06:03:27;;;;;;;35.63;24.38;;;1.30;99.90;;;;;;4998833;28;20536;-80
2023/11/28 06:05:52;;;;;;;35.47;24.23;;;1.40;99.90;;;;;;4998050;28;20232;-80
2023/11/28 06:08:18;;;;;;;33.10;21.80;;;1.30;99.90;;;;;;4997615;28;20192;-80
2023/11/28 06:10:44;;;;;;;34.90;22.03;;;1.40;99.90;;;;;;4998452;28;20187;-80
2023/11/28 06:13:09;;;;;;;32.87;21.87;;;1.30;99.90;;;;;;4997074;28;20187;-79
2023/11/28 06:15:35;;;;;;;36.00;22.33;;;1.30;99.90;;;;;;5000005;28;20180;-79
2023/11/28 06:18:01;;;;;;;34.90;23.70;;;1.30;99.90;;;;;;5000746;28;20267;-80
2023/11/28 06:20:26;;;;;;;35.07;23.93;;;1.30;99.90;;;;;;5002502;28;20263;-79
2023/11/28 06:22:52;;;;;;;33.57;22.70;;;1.40;99.90;;;;;;5001739;28;20191;-80
2023/11/28 06:25:17;;;;;;;24.23;15.30;;;1.30;99.90;;;;;;5001980;28;20276;-80
2023/11/28 06:27:43;;;;;;;29.87;19.90;;;1.20;99.90;;;;;;5001703;28;20233;-79
2023/11/28 06:30:09;;;;;;;33.40;21.47;;;1.30;99.90;;;;;;5002381;28;20214;-79
2023/11/28 06:32:35;;;;;;;30.42;19.83;;;1.30;99.90;;;;;;5001807;28;20600;-79
2023/11/28 06:35:00;;;;;;;30.70;21.30;;;1.30;99.90;;;;;;5002077;28;20239;-79
2023/11/28 06:37:26;;;;;;;33.77;21.87;;;1.30;99.90;;;;;;5001546;28;20275;-79
2023/11/28 06:39:52;;;;;;;29.10;20.10;;;1.30;99.90;;;;;;5000352;28;20635;-79
2023/11/28 06:42:19;;;;;;;31.70;22.20;;;1.30;99.90;;;;;;5002108;28;20419;-78
2023/11/28 06:44:44;;;;;;;36.40;22.20;;;1.30;99.90;;;;;;5001142;28;20210;-81
2023/11/28 06:47:10;;;;;;;33.83;22.30;;;1.30;99.90;;;;;;4999756;28;20188;-80
2023/11/28 06:49:35;;;;;;;32.30;21.80;;;1.30;99.90;;;;;;5001896;28;20589;-80
2023/11/28 06:52:02;;;;;;;33.07;23.60;;;1.20;99.90;;;;;;5002211;28;20193;-80
2023/11/28 06:54:28;;;;;;;35.33;22.75;;;1.20;99.90;;;;;;5001716;28;20215;-80
2023/11/28 06:56:54;;;;;;;34.67;23.38;;;1.30;99.90;;;;;;5001176;28;20176;-80
2023/11/28 06:59:20;;;;;;;37.85;24.70;;;1.30;99.90;;;;;;5001479;28;20207;-80
2023/11/28 07:01:46;;;;;;;38.23;22.57;;;1.20;99.90;;;;;;5001217;28;20651;-80
2023/11/28 07:04:13;;;;;;;31.35;21.15;;;1.30;99.90;;;;;;5001011;28;20257;-80
2023/11/28 07:06:39;;;;;;;35.70;23.13;;;1.20;99.90;;;;;;4999756;28;20183;-80
2023/11/28 07:09:04;;;;;;;33.93;22.50;;;1.30;99.90;;;;;;5000712;28;20212;-80
2023/11/28 07:11:30;;;;;;;32.57;21.77;;;1.30;99.90;;;;;;5012355;28;20217;-79
2023/11/28 07:13:56;;;;;;;36.20;23.27;;;1.30;99.90;;;;;;5020564;28;20242;-79
2023/11/28 07:16:22;;;;;;;32.63;22.30;;;1.30;99.90;;;;;;5018620;28;20210;-80
2023/11/28 07:18:49;;;;;;;36.00;24.25;;;1.30;99.90;;;;;;5018425;28;20264;-79
2023/11/28 07:21:15;;;;;;;31.65;22.00;;;1.30;99.90;;;;;;5019678;28;20176;-79
2023/11/28 07:23:43;;;;;;;38.05;23.30;;;1.30;99.90;;;;;;5017940;28;20215;-78
2023/11/28 07:26:09;;;;;;;32.92;21.90;;;1.30;99.90;;;;;;5016250;28;20275;-79
2023/11/28 07:28:35;;;;;;;36.50;23.20;;;1.20;99.90;;;;;;5019955;28;20235;-79
2023/11/28 07:31:01;;;;;;;34.90;23.88;;;1.20;99.90;;;;;;5034073;28;20183;-79
2023/11/28 07:33:26;;;;;;;34.20;23.50;;;1.20;99.90;;;;;;5018779;28;20214;-79
2023/11/28 07:35:52;;;;;;;35.53;24.00;;;1.20;99.90;;;;;;5017819;28;20431;-79
2023/11/28 07:38:21;;;;;;;28.30;20.10;;;1.20;99.90;;;;;;5032086;28;20276;-79
2023/11/28 07:40:48;;;;;;;30.27;22.00;;;1.20;99.90;;;;;;5036593;28;20417;-78
2023/11/28 07:43:14;;;;;;;31.83;21.75;;;1.10;99.90;;;;;;5038269;28;20215;-79
2023/11/28 07:45:40;;;;;;;27.47;19.47;;;1.10;99.90;;;;;;5038585;28;20191;-79
2023/11/28 07:48:06;;;;;;;30.15;19.38;;;1.10;99.90;;;;;;5037973;28;20549;-79
2023/11/28 07:50:31;;;;;;;43.27;18.50;;;1.10;99.90;;;;;;5039516;28;20258;-78
2023/11/28 07:52:58;;;;;;;27.10;19.90;;;1.10;99.90;;;;;;5039435;28;20424;-80
2023/11/28 07:55:23;;;;;;;29.58;20.02;;;1.10;99.90;;;;;;5036780;28;20182;-79
2023/11/28 07:57:49;;;;;;;28.63;19.67;;;1.10;99.90;;;;;;5038883;28;20190;-79
2023/11/28 08:00:15;;;;;;;27.80;18.80;;;1.10;99.90;;;;;;5037120;28;20685;-79
2023/11/28 08:02:41;;;;;;;24.87;18.17;;;1.10;99.90;;;;;;5030834;28;20185;-79
2023/11/28 08:05:07;;;;;;;25.55;16.90;;;1.10;99.90;;;;;;5019081;28;20433;-79
2023/11/28 08:07:33;;;;;;;22.58;16.80;;;1.10;99.90;;;;;;5017865;28;20179;-79
2023/11/28 08:10:05;;;;;;;21.33;15.30;;;1.10;99.90;;;;;;5019439;28;20204;-79
2023/11/28 08:12:31;;;;;;;20.45;15.65;;;1.10;99.90;;;;;;5019045;28;20176;-79
2023/11/28 08:14:57;;;;;;;16.80;13.27;;;1.10;99.90;;;;;;5019540;28;20334;-79
2023/11/28 08:17:22;;;;;;;17.25;13.27;;;1.00;99.90;;;;;;5019773;28;20180;-78
2023/11/28 08:19:49;;;;;;;17.77;11.20;;;1.00;99.90;;;;;;5019517;28;20187;-78
2023/11/28 08:22:15;;;;;;;17.60;13.40;;;1.00;99.90;;;;;;5019239;28;20194;-79
2023/11/28 08:24:40;;;;;;;18.57;13.67;;;1.00;99.90;;;;;;5019273;28;20218;-78
2023/11/28 08:27:06;;;;;;;12.83;10.33;;;1.00;99.90;;;;;;5017400;28;20278;-79
2023/11/28 08:29:31;;;;;;;16.60;12.00;;;1.00;99.90;;;;;;5018740;28;20183;-79
2023/11/28 08:32:00;;;;;;;16.53;12.50;;;1.00;99.90;;;;;;5019496;28;20528;-79
2023/11/28 08:34:25;;;;;;;16.13;13.00;;;1.00;99.90;;;;;;5019058;28;20222;-78
2023/11/28 08:36:51;;;;;;;15.27;11.73;;;1.00;99.90;;;;;;5019521;28;20199;-78
2023/11/28 08:39:17;;;;;;;20.38;12.45;;;0.90;99.90;;;;;;5018611;28;20189;-78
2023/11/28 08:41:43;;;;;;;16.50;11.90;;;0.90;99.90;;;;;;5019072;28;20545;-78
2023/11/28 08:44:09;;;;;;;15.63;10.80;;;0.90;99.90;;;;;;5018484;28;20477;-78
2023/11/28 08:46:37;;;;;;;21.67;12.18;;;0.90;99.90;;;;;;5019494;28;20643;-78
2023/11/28 08:49:05;;;;;;;13.57;10.65;;;0.90;99.90;;;;;;5019201;28;20184;-79
2023/11/28 08:51:32;;;;;;;14.07;10.63;;;1.00;99.90;;;;;;5019378;28;20196;-78
2023/11/28 08:53:57;;;;;;;11.50;9.45;;;1.00;99.90;;;;;;5017294;28;20182;-79
2023/11/28 08:56:23;;;;;;;12.90;10.00;;;1.00;99.90;;;;;;5018572;28;20692;-79
2023/11/28 08:58:49;;;;;;;13.93;9.95;;;0.90;99.90;;;;;;5019477;28;20251;-78
2023/11/28 09:01:15;;;;;;;20.57;14.33;;;1.00;99.90;;;;;;5019462;28;20260;-79
2023/11/28 09:03:41;;;;;;;18.50;12.43;;;0.90;99.90;;;;;;5018844;28;20473;-79
2023/11/28 09:06:07;;;;;;;10.73;8.13;;;0.90;99.90;;;;;;5019177;28;20620;-79
2023/11/28 09:08:33;;;;;;;11.10;9.20;;;0.90;99.90;;;;;;5018988;28;20418;-79
2023/11/28 09:10:59;;;;;;;9.77;8.77;;;1.00;99.90;;;;;;5018144;28;20421;-79
2023/11/28 09:13:24;;;;;;;13.57;8.60;;;1.00;99.90;;;;;;5018701;28;20183;-78
2023/11/28 09:15:50;;;;;;;9.77;7.50;;;1.10;99.90;;;;;;5019090;28;20179;-79
2023/11/28 09:18:16;;;;;;;10.07;8.00;;;1.00;99.90;;;;;;5018512;28;20191;-78
2023/11/28 09:20:42;;;;;;;7.27;6.57;;;1.00;99.90;;;;;;5020115;28;20179;-78
2023/11/28 09:23:07;;;;;;;10.40;7.53;;;1.10;99.90;;;;;;5019452;28;20466;-78
2023/11/28 09:25:33;;;;;;;11.47;7.17;;;1.00;99.90;;;;;;5019122;28;20251;-78
2023/11/28 09:27:58;;;;;;;8.27;6.83;;;1.10;99.90;;;;;;5018531;28;20314;-79
2023/11/28 09:30:24;;;;;;;8.03;6.67;;;1.20;99.90;;;;;;5019455;28;20183;-78
2023/11/28 09:32:50;;;;;;;8.37;6.37;;;1.10;99.90;;;;;;5019878;28;20195;-78
2023/11/28 09:35:16;;;;;;;8.20;6.10;;;1.20;99.90;;;;;;5018512;28;20190;-78
2023/11/28 09:37:41;;;;;;;7.50;6.07;;;1.30;99.90;;;;;;5022356;28;20428;-78
2023/11/28 09:40:07;;;;;;;8.60;6.37;;;1.20;99.90;;;;;;5017086;28;20425;-78
2023/11/28 09:42:35;;;;;;;7.65;5.85;;;1.30;99.90;;;;;;5019001;28;20267;-78
2023/11/28 09:45:05;;;;;;;7.13;5.15;;;1.20;99.90;;;;;;5019159;28;20246;-78
2023/11/28 09:47:36;;;;;;;7.55;5.43;;;1.20;99.90;;;;;;5019234;28;20175;-78
2023/11/28 09:50:06;;;;;;;6.85;4.80;;;1.30;99.90;;;;;;5019984;28;20186;-79
2023/11/28 09:52:36;;;;;;;6.80;5.25;;;1.40;99.90;;;;;;5021853;28;20175;-79
2023/11/28 09:55:03;;;;;;;7.80;5.43;;;1.50;99.90;;;;;;5022811;28;20188;-79
2023/11/28 09:57:35;;;;;;;7.55;5.00;;;1.40;99.90;;;;;;5023065;28;20189;-78
2023/11/28 10:00:04;;;;;;;5.45;4.40;;;1.40;99.90;;;;;;5022920;28;20196;-78
2023/11/28 10:02:31;;;;;;;7.00;5.15;;;1.40;99.90;;;;;;5023373;28;20550;-78
2023/11/28 10:04:57;;;;;;;6.47;4.88;;;1.40;99.90;;;;;;5022703;28;20243;-78
2023/11/28 10:07:35;;;;;;;5.80;4.90;;;1.50;99.90;;;;;;5022291;28;20239;-78
2023/11/28 10:10:06;;;;;;;6.30;4.32;;;1.60;99.90;;;;;;5022824;28;20181;-78
2023/11/28 10:12:32;;;;;;;4.35;3.92;;;1.60;99.90;;;;;;5022736;28;20173;-78
2023/11/28 10:14:58;;;;;;;6.43;4.87;;;1.60;99.90;;;;;;5022837;28;20188;-78
2023/11/28 10:17:24;;;;;;;5.63;4.57;;;1.70;99.90;;;;;;5022174;28;20190;-78
2023/11/28 10:19:49;;;;;;;5.17;4.67;;;1.70;99.90;;;;;;5021258;28;20190;-78
2023/11/28 10:22:15;;;;;;;6.07;4.23;;;1.80;99.90;;;;;;5021971;28;20417;-78
2023/11/28 10:24:41;;;;;;;15.00;4.27;;;1.80;99.90;;;;;;5022348;28;20221;-78
2023/11/28 10:27:06;;;;;;;4.53;3.80;;;1.90;99.90;;;;;;5022108;28;20236;-78
2023/11/28 10:29:32;;;;;;;5.97;4.47;;;1.90;99.90;;;;;;5022333;28;20182;-78
2023/11/28 10:32:00;;;;;;;4.28;3.70;;;1.90;99.90;;;;;;5022097;28;20213;-78
2023/11/28 10:34:26;;;;;;;5.05;3.80;;;2.00;99.90;;;;;;5022017;28;20188;-78
2023/11/28 10:36:51;;;;;;;3.50;3.20;;;2.00;99.90;;;;;;5022044;28;20654;-79
2023/11/28 10:39:19;;;;;;;5.97;4.77;;;2.00;99.90;;;;;;5022201;28;20273;-78
2023/11/28 10:41:45;;;;;;;4.05;3.40;;;2.10;99.90;;;;;;5022261;28;20714;-78
2023/11/28 10:44:11;;;;;;;3.60;3.30;;;2.20;99.90;;;;;;5021922;28;20285;-80
2023/11/28 10:46:39;;;;;;;6.10;3.47;;;2.20;99.90;;;;;;5021927;28;20773;-78
2023/11/28 10:49:08;;;;;;;3.35;3.05;;;2.10;99.90;;;;;;5021818;28;20208;-80
2023/11/28 10:51:34;;;;;;;12.77;8.13;;;2.20;99.90;;;;;;5021410;28;20646;-78
2023/11/28 10:54:11;;;;;;;4.70;3.70;;;2.30;99.90;;;;;;5021946;28;20649;-78
2023/11/28 10:56:49;;;;;;;5.18;3.90;;;2.20;99.90;;;;;;5021917;28;20280;-80
2023/11/28 10:59:33;;;;;;;5.85;4.10;;;2.30;99.90;;;;;;5020769;28;20180;-78
2023/11/28 11:02:01;;;;;;;14.55;8.05;;;2.60;99.90;;;;;;5020156;28;20181;-78
2023/11/28 11:04:30;;;;;;;8.80;4.88;;;2.70;99.90;;;;;;5021500;28;20554;-78
2023/11/28 11:06:56;;;;;;;6.45;4.00;;;3.00;99.90;;;;;;5020849;28;20227;-78
2023/11/28 11:09:26;;;;;;;4.50;3.10;;;3.40;99.90;;;;;;5020485;28;20185;-78
2023/11/28 11:11:55;;;;;;;4.57;2.95;;;4.00;99.90;;;;;;5020588;28;20183;-78
2023/11/28 11:14:38;;;;;;;5.65;3.83;;;4.30;99.90;;;;;;5020034;28;20191;-78
2023/11/28 11:17:28;;;;;;;7.32;4.78;;;4.50;99.90;;;;;;5020755;28;20174;-79
2023/11/28 11:19:58;;;;;;;5.65;3.35;;;4.50;99.90;;;;;;5020497;28;20187;-78
2023/11/28 11:22:28;;;;;;;3.78;3.20;;;4.40;99.90;;;;;;5020688;28;20186;-78
2023/11/28 11:24:54;;;;;;;10.15;4.57;;;3.90;99.90;;;;;;5020715;28;20222;-78
2023/11/28 11:27:20;;;;;;;4.43;3.03;;;3.70;99.90;;;;;;5020636;28;20235;-78
2023/11/28 11:29:47;;;;;;;7.20;3.20;;;3.40;99.90;;;;;;5021168;28;20177;-77
2023/11/28 11:32:15;;;;;;;7.60;3.42;;;3.20;99.90;;;;;;5019979;28;20586;-78
2023/11/28 11:34:48;;;;;;;5.60;3.55;;;3.10;99.90;;;;;;5020293;28;20198;-78
2023/11/28 11:37:19;;;;;;;5.18;3.78;;;3.10;99.90;;;;;;5019976;28;20179;-78
2023/11/28 11:39:49;;;;;;;5.18;3.55;;;3.00;99.90;;;;;;5020301;28;20186;-77
2023/11/28 11:42:17;;;;;;;5.18;4.40;;;2.90;99.90;;;;;;5020287;28;20231;-78
2023/11/28 11:44:51;;;;;;;4.90;4.18;;;2.80;99.90;;;;;;5020651;28;20213;-77
2023/11/28 11:47:20;;;;;;;4.15;3.75;;;2.70;99.90;;;;;;5019680;28;20232;-77
2023/11/28 11:49:47;;;;;;;3.65;3.35;;;2.70;99.90;;;;;;5020097;28;20178;-77
2023/11/28 11:52:14;;;;;;;5.38;3.92;;;2.60;99.90;;;;;;5020494;28;20209;-78
2023/11/28 11:54:41;;;;;;;4.90;3.70;;;2.40;99.90;;;;;;5021092;28;20181;-77
2023/11/28 11:57:08;;;;;;;3.08;2.78;;;2.40;99.90;;;;;;5020103;28;20190;-78
2023/11/28 11:59:34;;;;;;;3.45;2.78;;;2.40;99.90;;;;;;5020669;28;20262;-77
2023/11/28 12:02:01;;;;;;;3.40;3.10;;;2.40;99.90;;;;;;5019819;28;20220;-78
2023/11/28 12:04:30;;;;;;;3.58;2.50;;;2.50;99.90;;;;;;5019714;28;20823;-78
2023/11/28 12:07:09;;;;;;;3.30;2.70;;;2.60;99.90;;;;;;5020026;28;20233;-78
2023/11/28 12:09:35;;;;;;;3.60;2.45;;;2.50;99.90;;;;;;5019741;28;20174;-78
2023/11/28 12:12:05;;;;;;;3.70;3.00;;;2.40;99.90;;;;;;5019744;28;20185;-78
2023/11/28 12:14:32;;;;;;;2.97;2.78;;;2.40;99.90;;;;;;5019286;28;20174;-78
2023/11/28 12:17:00;;;;;;;3.92;3.55;;;2.30;99.90;;;;;;5020190;28;20201;-78
2023/11/28 12:19:27;;;;;;;3.97;3.47;;;2.20;99.90;;;;;;5019441;28;20491;-78
2023/11/28 12:21:53;;;;;;;4.18;3.78;;;2.30;99.90;;;;;;5019729;28;20236;-78
2023/11/28 12:24:18;;;;;;;6.13;3.60;;;2.30;99.90;;;;;;5019314;28;20521;-78
2023/11/28 12:26:45;;;;;;;3.80;3.33;;;2.30;99.90;;;;;;5019044;28;20228;-78
2023/11/28 12:29:12;;;;;;;5.30;4.03;;;2.30;99.90;;;;;;5019955;28;20190;-78
2023/11/28 12:31:38;;;;;;;7.43;4.20;;;2.30;99.90;;;;;;5019590;28;20192;-78
2023/11/28 12:34:03;;;;;;;4.20;3.37;;;2.30;99.90;;;;;;5019633;28;20188;-78
2023/11/28 12:36:29;;;;;;;2.90;2.57;;;2.30;99.90;;;;;;5018768;28;20426;-78
2023/11/28 12:38:58;;;;;;;3.43;2.63;;;2.30;99.90;;;;;;5019213;28;20184;-78
2023/11/28 12:41:40;;;;;;;4.10;3.22;;;2.20;99.90;;;;;;5018919;28;20829;-78